createdAt,value
2019-05-23T00:00:50.682Z,25.47
2019-05-23T00:03:43.457Z,24.23
2019-05-23T00:06:33.373Z,24.20
2019-05-23T00:09:20.804Z,23.67
2019-05-23T00:12:07.423Z,27.27
2019-05-23T00:15:00.238Z,24.47
2019-05-23T00:17:29.242Z,27.27
2019-05-23T00:19:58.900Z,26.77
2019-05-23T00:22:29.035Z,29.13
2019-05-23T00:24:57.573Z,27.43
2019-05-23T00:27:27.185Z,25.13
2019-05-23T00:29:58.118Z,25.80
2019-05-23T00:32:37.281Z,24.13
2019-05-23T00:35:08.605Z,23.73
2019-05-23T00:37:40.250Z,23.47
2019-05-23T00:40:11.306Z,24.63
2019-05-23T00:42:41.551Z,21.87
2019-05-23T00:45:12.333Z,22.77
2019-05-23T00:47:41.133Z,23.53
2019-05-23T00:50:11.576Z,20.10
2019-05-23T00:52:42.307Z,20.43
2019-05-23T00:55:12.633Z,21.83
2019-05-23T00:57:43.967Z,21.90
2019-05-23T01:00:16.043Z,22.07
2019-05-23T01:02:45.731Z,21.37
2019-05-23T01:05:14.534Z,19.73
2019-05-23T01:07:45.028Z,19.27
2019-05-23T01:10:17.861Z,21.50
2019-05-23T01:12:47.878Z,20.83
2019-05-23T01:15:18.301Z,25.10
2019-05-23T01:17:47.450Z,22.73
2019-05-23T01:20:18.527Z,23.00
2019-05-23T01:22:47.875Z,24.47
2019-05-23T01:25:17.734Z,23.20
2019-05-23T01:27:46.438Z,24.17
2019-05-23T01:30:19.059Z,27.20
2019-05-23T01:32:49.968Z,25.90
2019-05-23T01:35:19.882Z,28.67
2019-05-23T01:37:48.755Z,28.30
2019-05-23T01:40:17.637Z,29.17
2019-05-23T01:42:47.568Z,28.07
2019-05-23T01:45:17.364Z,30.00
2019-05-23T01:47:47.397Z,32.17
2019-05-23T01:50:20.397Z,29.73
2019-05-23T01:52:50.005Z,30.97
2019-05-23T01:55:20.050Z,31.93
2019-05-23T01:57:49.464Z,31.80
2019-05-23T02:00:20.874Z,30.47
2019-05-23T02:02:49.610Z,31.47
2019-05-23T02:05:19.831Z,37.80
2019-05-23T02:07:48.914Z,38.30
2019-05-23T02:10:17.640Z,41.20
2019-05-23T02:12:47.441Z,39.43
2019-05-23T02:15:16.424Z,37.57
2019-05-23T02:17:46.085Z,40.87
2019-05-23T02:20:17.316Z,39.00
2019-05-23T02:22:47.284Z,37.73
2019-05-23T02:25:19.562Z,41.40
2019-05-23T02:27:49.671Z,38.00
2019-05-23T02:30:33.388Z,42.67
2019-05-23T02:32:51.753Z,44.30
2019-05-23T02:35:21.166Z,47.87
2019-05-23T02:38:21.667Z,50.87
2019-05-23T02:41:12.937Z,57.77
2019-05-23T02:43:47.027Z,61.23
2019-05-23T02:46:29.291Z,57.27
2019-05-23T02:49:03.340Z,53.30
2019-05-23T02:51:36.774Z,60.67
2019-05-23T02:54:09.146Z,55.63
2019-05-23T02:56:40.282Z,60.90
2019-05-23T02:59:37.425Z,59.53
2019-05-23T03:03:00.107Z,60.63
2019-05-23T03:05:28.910Z,58.33
2019-05-23T03:08:00.535Z,53.80
2019-05-23T03:10:52.307Z,55.07
2019-05-23T03:13:24.804Z,58.03
2019-05-23T03:15:55.110Z,55.00
2019-05-23T03:18:25.003Z,60.70
2019-05-23T03:20:54.064Z,63.83
2019-05-23T03:23:23.283Z,61.00
2019-05-23T03:26:37.012Z,58.93
2019-05-23T03:29:08.038Z,65.17
2019-05-23T03:31:45.783Z,65.77
2019-05-23T03:34:15.820Z,63.00
2019-05-23T03:36:50.525Z,63.23
2019-05-23T03:39:19.286Z,60.80
2019-05-23T03:41:48.311Z,61.57
2019-05-23T03:44:19.490Z,61.80
2019-05-23T03:46:50.887Z,67.33
2019-05-23T03:49:20.534Z,63.13
2019-05-23T03:51:50.519Z,65.50
2019-05-23T03:54:20.486Z,58.13
2019-05-23T03:56:51.656Z,64.07
2019-05-23T03:59:26.867Z,68.03
2019-05-23T04:01:56.414Z,65.83
2019-05-23T04:04:27.199Z,62.77
2019-05-23T04:06:57.588Z,63.77
2019-05-23T04:09:27.503Z,66.87
2019-05-23T04:11:58.692Z,63.87
2019-05-23T04:14:28.010Z,64.27
2019-05-23T04:16:56.997Z,61.80
2019-05-23T04:19:25.807Z,59.67
2019-05-23T04:21:55.505Z,59.50
2019-05-23T04:24:24.588Z,64.63
2019-05-23T04:26:54.348Z,56.50
2019-05-23T04:29:23.518Z,65.37
2019-05-23T04:32:06.862Z,59.80
2019-05-23T04:34:23.101Z,60.73
2019-05-23T04:36:52.104Z,59.70
2019-05-23T04:39:20.947Z,60.20
2019-05-23T04:41:49.534Z,59.47
2019-05-23T04:44:19.422Z,63.27
2019-05-23T04:46:48.225Z,62.40
2019-05-23T04:49:16.960Z,65.70
2019-05-23T04:51:45.825Z,65.77
2019-05-23T04:54:14.763Z,62.17
2019-05-23T04:56:43.819Z,60.97
2019-05-23T04:59:15.145Z,59.07
2019-05-23T05:01:46.833Z,62.67
2019-05-23T05:04:16.327Z,58.10
2019-05-23T05:06:45.120Z,57.27
2019-05-23T05:09:23.374Z,54.47
2019-05-23T05:11:52.410Z,58.70
2019-05-23T05:14:21.424Z,63.87
2019-05-23T05:16:50.139Z,57.50
2019-05-23T05:19:19.110Z,57.20
2019-05-23T05:21:48.131Z,59.23
2019-05-23T05:24:16.990Z,56.73
2019-05-23T05:26:45.541Z,52.77
2019-05-23T05:29:14.391Z,55.03
2019-05-23T05:31:42.880Z,49.87
2019-05-23T05:34:12.693Z,46.63
2019-05-23T05:36:41.587Z,49.83
2019-05-23T05:39:12.688Z,46.70
2019-05-23T05:41:42.008Z,47.63
2019-05-23T05:44:11.802Z,44.80
2019-05-23T05:46:40.909Z,45.20
2019-05-23T05:49:10.479Z,48.63
2019-05-23T05:51:39.509Z,49.13
2019-05-23T05:54:09.263Z,52.90
2019-05-23T05:56:39.368Z,50.93
2019-05-23T05:59:08.033Z,48.47
2019-05-23T06:01:37.057Z,52.07
2019-05-23T06:04:08.445Z,49.00
2019-05-23T06:06:42.479Z,54.93
2019-05-23T06:09:23.958Z,49.63
2019-05-23T06:11:52.661Z,51.93
2019-05-23T06:14:21.492Z,47.23
2019-05-23T06:16:51.903Z,43.60
2019-05-23T06:19:20.953Z,44.00
2019-05-23T06:21:49.568Z,44.07
2019-05-23T06:24:18.255Z,42.90
2019-05-23T06:26:47.213Z,43.30
2019-05-23T06:29:16.011Z,40.63
2019-05-23T06:31:44.962Z,38.27
2019-05-23T06:34:13.788Z,38.33
2019-05-23T06:36:43.126Z,38.37
2019-05-23T06:39:15.758Z,34.90
2019-05-23T06:41:52.522Z,28.07
2019-05-23T06:44:31.195Z,25.87
2019-05-23T06:47:29.612Z,31.07
2019-05-23T06:50:06.999Z,33.10
2019-05-23T06:52:44.345Z,30.20
2019-05-23T06:55:23.150Z,34.10
2019-05-23T06:58:00.442Z,27.73
2019-05-23T07:00:38.017Z,32.37
2019-05-23T07:03:42.562Z,27.00
2019-05-23T07:06:26.958Z,26.20
2019-05-23T07:09:01.470Z,26.03
2019-05-23T07:11:39.563Z,27.83
2019-05-23T07:14:16.060Z,29.87
2019-05-23T07:16:44.978Z,26.03
2019-05-23T07:19:14.204Z,27.77
2019-05-23T07:21:43.599Z,28.13
2019-05-23T07:24:12.526Z,28.13
2019-05-23T07:26:41.389Z,24.73
2019-05-23T07:29:11.987Z,25.60
2019-05-23T07:31:40.594Z,22.77
2019-05-23T07:34:09.507Z,22.77
2019-05-23T07:36:39.657Z,25.77
2019-05-23T07:39:14.273Z,22.67
2019-05-23T07:41:43.127Z,21.40
2019-05-23T07:44:13.967Z,22.70
2019-05-23T07:46:42.870Z,20.80
2019-05-23T07:49:11.925Z,21.70
2019-05-23T07:51:40.855Z,22.67
2019-05-23T07:54:58.003Z,23.80
2019-05-23T07:57:29.618Z,23.30
2019-05-23T08:00:02.242Z,24.73
2019-05-23T08:02:35.357Z,23.53
2019-05-23T08:05:07.002Z,20.50
2019-05-23T08:07:37.086Z,24.43
2019-05-23T08:10:07.515Z,21.17
2019-05-23T08:12:36.318Z,21.07
2019-05-23T08:15:05.441Z,19.23
2019-05-23T08:17:35.172Z,21.07
2019-05-23T08:20:09.355Z,20.83
2019-05-23T08:22:38.418Z,21.20
2019-05-23T08:25:08.336Z,21.60
2019-05-23T08:27:37.026Z,21.17
2019-05-23T08:30:07.552Z,22.07
2019-05-23T08:32:36.687Z,25.53
2019-05-23T08:35:06.149Z,24.53
2019-05-23T08:37:35.121Z,24.33
2019-05-23T08:40:04.325Z,23.53
2019-05-23T08:42:34.676Z,24.13
2019-05-23T08:45:04.693Z,22.23
2019-05-23T08:47:33.556Z,21.87
2019-05-23T08:50:02.904Z,19.70
2019-05-23T08:52:31.821Z,17.47
2019-05-23T08:55:12.913Z,18.50
2019-05-23T08:57:41.730Z,20.43
2019-05-23T09:00:10.914Z,19.40
2019-05-23T09:02:39.956Z,22.53
2019-05-23T09:05:10.582Z,20.27
2019-05-23T09:07:43.199Z,21.50
2019-05-23T09:10:13.309Z,20.70
2019-05-23T09:12:42.701Z,21.53
2019-05-23T09:15:11.588Z,20.80
2019-05-23T09:17:53.198Z,19.33
2019-05-23T09:20:15.971Z,21.83
2019-05-23T09:22:46.089Z,23.53
2019-05-23T09:25:15.714Z,22.00
2019-05-23T09:27:45.193Z,21.73
2019-05-23T09:30:15.647Z,24.73
2019-05-23T09:32:50.777Z,23.90
2019-05-23T09:35:22.060Z,25.97
2019-05-23T09:37:50.564Z,26.20
2019-05-23T09:40:20.283Z,28.00
2019-05-23T09:42:50.191Z,27.13
2019-05-23T09:45:19.599Z,26.50
2019-05-23T09:47:51.095Z,27.60
2019-05-23T09:50:22.330Z,24.60
2019-05-23T09:52:53.118Z,25.27
2019-05-23T09:55:22.260Z,28.57
2019-05-23T09:57:50.972Z,23.83
2019-05-23T10:00:25.183Z,24.93
2019-05-23T10:02:53.948Z,21.90
2019-05-23T10:05:41.978Z,21.83
2019-05-23T10:07:57.764Z,24.17
2019-05-23T10:10:31.320Z,22.80
2019-05-23T10:13:00.174Z,23.77
2019-05-23T10:16:00.943Z,25.90
2019-05-23T10:18:29.831Z,25.43
2019-05-23T10:20:58.939Z,25.00
2019-05-23T10:23:27.650Z,23.57
2019-05-23T10:25:56.319Z,23.00
2019-05-23T10:28:25.012Z,23.87
2019-05-23T10:30:53.749Z,25.37
2019-05-23T10:33:22.469Z,24.33
2019-05-23T10:36:00.345Z,25.27
2019-05-23T10:38:21.612Z,24.10
2019-05-23T10:40:50.433Z,22.20
2019-05-23T10:43:19.331Z,22.07
2019-05-23T10:45:48.261Z,22.13
2019-05-23T10:48:18.615Z,20.67
2019-05-23T10:50:47.735Z,20.60
2019-05-23T10:53:16.563Z,19.67
2019-05-23T10:55:45.302Z,22.57
2019-05-23T10:58:15.880Z,18.93
2019-05-23T11:00:46.791Z,19.37
2019-05-23T11:03:16.176Z,19.67
2019-05-23T11:05:45.089Z,18.20
2019-05-23T11:08:14.407Z,19.63
2019-05-23T11:10:43.349Z,18.70
2019-05-23T11:13:12.030Z,18.20
2019-05-23T11:15:40.829Z,20.10
2019-05-23T11:18:10.743Z,19.30
2019-05-23T11:20:40.235Z,18.37
2019-05-23T11:23:09.590Z,16.97
2019-05-23T11:25:39.273Z,17.50
2019-05-23T11:28:08.396Z,17.20
2019-05-23T11:30:43.295Z,17.60
2019-05-23T11:33:13.710Z,18.50
2019-05-23T11:35:43.668Z,15.73
2019-05-23T11:38:13.943Z,14.60
2019-05-23T11:40:49.044Z,16.60
2019-05-23T11:43:17.995Z,13.87
2019-05-23T11:46:04.860Z,16.13
2019-05-23T11:48:34.570Z,15.00
2019-05-23T11:51:03.847Z,14.30
2019-05-23T11:53:33.647Z,15.57
2019-05-23T11:56:02.439Z,13.50
2019-05-23T11:58:32.555Z,12.40
2019-05-23T12:01:21.415Z,12.87
2019-05-23T12:03:55.018Z,11.03
2019-05-23T12:06:26.541Z,8.87
2019-05-23T12:08:55.468Z,8.47
2019-05-23T12:11:24.303Z,8.57
2019-05-23T12:13:53.364Z,10.87
2019-05-23T12:16:22.848Z,12.03
2019-05-23T12:18:53.996Z,14.20
2019-05-23T12:21:23.208Z,10.63
2019-05-23T12:23:52.096Z,10.60
2019-05-23T12:26:20.988Z,8.70
2019-05-23T12:28:49.754Z,10.27
2019-05-23T12:31:18.682Z,8.07
2019-05-23T12:33:47.721Z,8.17
2019-05-23T12:36:16.454Z,7.77
2019-05-23T12:38:45.067Z,8.43
2019-05-23T12:41:15.042Z,8.47
2019-05-23T12:43:43.697Z,8.33
2019-05-23T12:46:12.444Z,10.13
2019-05-23T12:48:48.762Z,9.40
2019-05-23T12:51:19.695Z,12.53
2019-05-23T12:53:52.117Z,10.63
2019-05-23T12:56:21.251Z,13.87
2019-05-23T12:58:50.171Z,14.13
2019-05-23T13:01:24.325Z,10.73
2019-05-23T13:04:09.957Z,9.00
2019-05-23T13:06:37.033Z,8.73
2019-05-23T13:09:27.361Z,12.33
2019-05-23T13:12:17.876Z,12.97
2019-05-23T13:15:15.253Z,9.70
2019-05-23T13:18:11.757Z,15.10
2019-05-23T13:21:04.405Z,15.17
2019-05-23T13:23:54.699Z,13.13
2019-05-23T13:26:45.580Z,12.90
2019-05-23T13:29:43.149Z,11.83
2019-05-23T13:32:45.281Z,10.80
2019-05-23T13:35:29.654Z,12.67
2019-05-23T13:38:38.252Z,13.07
2019-05-23T13:51:09.732Z,10.03
2019-05-23T13:53:38.762Z,8.30
2019-05-23T13:56:07.638Z,8.38
2019-05-23T13:58:45.668Z,8.93
2019-05-23T14:01:35.428Z,10.53
2019-05-23T14:04:25.460Z,11.73
2019-05-23T14:07:37.250Z,10.78
2019-05-23T14:11:09.708Z,11.65
2019-05-23T14:14:42.489Z,9.90
2019-05-23T14:18:05.814Z,12.17
2019-05-23T14:21:06.811Z,12.93
2019-05-23T14:24:25.609Z,11.50
2019-05-23T14:27:30.813Z,10.28
2019-05-23T14:30:39.406Z,11.20
2019-05-23T14:37:01.226Z,8.57
2019-05-23T14:40:06.227Z,9.10
2019-05-23T14:43:14.486Z,8.23
2019-05-23T14:46:26.817Z,8.33
2019-05-23T14:49:39.973Z,7.72
2019-05-23T14:52:43.834Z,9.53
2019-05-23T14:55:34.412Z,8.03
2019-05-23T14:58:29.802Z,8.50
2019-05-23T15:01:34.853Z,8.55
2019-05-23T15:04:46.861Z,8.75
2019-05-23T15:08:10.745Z,8.65
2019-05-23T15:10:42.238Z,9.23
2019-05-23T15:13:53.345Z,11.83
2019-05-23T15:16:46.283Z,8.73
2019-05-23T15:19:47.083Z,10.13
2019-05-23T15:40:17.540Z,12.78
2019-05-23T15:42:47.357Z,10.48
2019-05-23T15:45:20.195Z,10.93
2019-05-23T15:47:49.161Z,11.78
2019-05-23T15:50:20.597Z,11.83
2019-05-23T15:53:14.548Z,11.20
2019-05-23T15:56:27.745Z,12.98
2019-05-23T15:58:54.649Z,16.45
2019-05-23T16:01:33.715Z,18.12
2019-05-23T16:04:08.783Z,19.12
2019-05-23T16:06:40.711Z,22.00
2019-05-23T16:09:28.577Z,16.20
2019-05-23T16:11:46.915Z,16.37
2019-05-23T16:14:15.950Z,18.53
2019-05-23T16:16:45.033Z,15.68
2019-05-23T16:19:15.356Z,14.90
2019-05-23T16:21:48.089Z,16.37
2019-05-23T16:24:19.034Z,14.50
2019-05-23T16:26:50.020Z,17.10
2019-05-23T16:29:20.714Z,17.17
2019-05-23T16:31:53.761Z,16.00
2019-05-23T16:34:23.643Z,14.53
2019-05-23T16:36:52.746Z,16.53
2019-05-23T16:39:25.124Z,18.27
2019-05-23T16:41:54.178Z,17.53
2019-05-23T16:44:24.414Z,14.30
2019-05-23T16:46:53.526Z,20.27
2019-05-23T16:49:28.085Z,17.20
2019-05-23T16:51:58.758Z,15.00
2019-05-23T16:54:32.415Z,14.23
2019-05-23T16:57:19.397Z,14.07
2019-05-23T16:59:58.991Z,13.97
2019-05-23T17:02:53.543Z,14.50
2019-05-23T17:05:59.577Z,14.30
2019-05-23T17:08:56.437Z,14.50
2019-05-23T17:11:47.172Z,12.77
2019-05-23T17:14:33.012Z,13.40
2019-05-23T17:17:59.887Z,12.93
2019-05-23T17:20:26.961Z,20.90
2019-05-23T17:23:05.097Z,14.03
2019-05-23T17:26:07.988Z,18.10
2019-05-23T17:28:39.982Z,15.40
2019-05-23T17:31:11.974Z,17.20
2019-05-23T17:33:40.611Z,18.90
2019-05-23T17:36:09.254Z,12.67
2019-05-23T17:38:37.965Z,12.47
2019-05-23T17:41:06.975Z,12.93
2019-05-23T17:43:35.532Z,12.33
2019-05-23T17:46:07.728Z,12.63
2019-05-23T17:48:36.228Z,11.70
2019-05-23T17:51:12.970Z,12.57
2019-05-23T17:53:42.372Z,12.77
2019-05-23T17:56:11.364Z,12.00
2019-05-23T17:58:40.339Z,11.83
2019-05-23T18:01:09.109Z,13.17
2019-05-23T18:03:37.809Z,17.05
2019-05-23T18:06:07.380Z,13.13
2019-05-23T18:08:37.223Z,14.93
2019-05-23T18:11:06.476Z,13.10
2019-05-23T18:13:35.299Z,14.20
2019-05-23T18:16:04.342Z,13.57
2019-05-23T18:18:33.842Z,13.93
2019-05-23T18:21:09.202Z,13.62
2019-05-23T18:23:44.334Z,12.50
2019-05-23T18:26:14.262Z,12.97
2019-05-23T18:28:43.261Z,12.80
2019-05-23T18:31:16.478Z,12.63
2019-05-23T18:33:45.240Z,13.80
2019-05-23T18:36:15.117Z,13.50
2019-05-23T18:38:43.905Z,13.83
2019-05-23T18:41:14.213Z,17.40
2019-05-23T18:43:42.895Z,15.13
2019-05-23T18:46:16.813Z,16.10
2019-05-23T18:48:47.383Z,16.23
2019-05-23T18:51:16.822Z,16.50
2019-05-23T18:53:45.697Z,16.00
2019-05-23T18:56:15.007Z,15.77
2019-05-23T18:58:44.015Z,15.43
2019-05-23T19:01:21.474Z,18.87
2019-05-23T19:03:52.020Z,16.57
2019-05-23T19:06:21.251Z,15.60
2019-05-23T19:08:50.689Z,16.90
2019-05-23T19:11:21.602Z,16.53
2019-05-23T19:13:51.446Z,17.37
2019-05-23T19:16:20.898Z,16.47
2019-05-23T19:18:57.046Z,17.07
2019-05-23T19:21:28.205Z,17.90
2019-05-23T19:23:56.885Z,18.23
2019-05-23T19:26:26.024Z,18.07
2019-05-23T19:28:54.624Z,18.77
2019-05-23T19:31:23.563Z,18.43
2019-05-23T19:33:52.315Z,18.93
2019-05-23T19:36:21.476Z,18.17
2019-05-23T19:38:50.154Z,18.20
2019-05-23T19:41:19.383Z,17.97
2019-05-23T19:43:48.440Z,18.50
2019-05-23T19:46:17.801Z,18.33
2019-05-23T19:48:48.364Z,19.00
2019-05-23T19:51:17.831Z,19.37
2019-05-23T19:53:46.691Z,19.07
2019-05-23T19:56:15.477Z,18.60
2019-05-23T19:58:44.446Z,18.60
2019-05-23T20:01:14.069Z,18.43
2019-05-23T20:03:42.834Z,17.83
2019-05-23T20:06:11.570Z,18.13
2019-05-23T20:08:40.609Z,17.97
2019-05-23T20:11:10.166Z,17.53
2019-05-23T20:13:39.635Z,18.07
2019-05-23T20:16:08.408Z,20.17
2019-05-23T20:18:37.253Z,19.77
2019-05-23T20:21:05.936Z,19.53
2019-05-23T20:23:34.655Z,17.73
2019-05-23T20:26:07.996Z,19.30
2019-05-23T20:28:35.354Z,20.43
2019-05-23T20:31:04.809Z,21.53
2019-05-23T20:33:33.643Z,21.17
2019-05-23T20:36:06.411Z,21.97
2019-05-23T20:38:38.169Z,20.87
2019-05-23T20:41:06.864Z,21.70
2019-05-23T20:43:36.022Z,20.73
2019-05-23T20:46:05.051Z,22.57
2019-05-23T20:48:35.763Z,25.87
2019-05-23T20:51:04.603Z,30.27
2019-05-23T20:53:33.310Z,31.60
2019-05-23T20:56:02.074Z,28.67
2019-05-23T20:58:30.606Z,30.40
2019-05-23T21:01:33.525Z,34.10
2019-05-23T21:04:02.588Z,33.67
2019-05-23T21:06:31.449Z,33.90
2019-05-23T21:09:00.129Z,33.73
2019-05-23T21:11:28.762Z,34.97
2019-05-23T21:13:57.444Z,35.37
2019-05-23T21:16:26.269Z,32.90
2019-05-23T21:18:55.092Z,33.97
2019-05-23T21:21:23.811Z,34.20
2019-05-23T21:23:56.652Z,35.43
2019-05-23T21:26:22.773Z,35.63
2019-05-23T21:28:57.183Z,36.17
2019-05-23T21:31:52.993Z,35.97
2019-05-23T21:34:22.396Z,36.27
2019-05-23T21:36:51.181Z,36.70
2019-05-23T21:39:20.911Z,38.40
2019-05-23T21:41:49.560Z,37.93
2019-05-23T21:44:18.174Z,35.03
2019-05-23T21:46:46.801Z,37.73
2019-05-23T21:49:15.225Z,40.47
2019-05-23T21:51:44.064Z,37.87
2019-05-23T21:54:12.611Z,40.37
2019-05-23T21:56:41.283Z,40.00
2019-05-23T21:59:09.867Z,41.57
2019-05-23T22:01:52.791Z,40.13
2019-05-23T22:04:53.200Z,42.93
2019-05-23T22:07:21.903Z,42.00
2019-05-23T22:09:50.302Z,41.87
2019-05-23T22:12:19.422Z,41.00
2019-05-23T22:14:48.044Z,44.80
2019-05-23T22:17:19.286Z,45.67
2019-05-23T22:19:47.920Z,41.97
2019-05-23T22:22:21.724Z,44.37
2019-05-23T22:24:50.368Z,44.13
2019-05-23T22:27:19.045Z,43.40
2019-05-23T22:29:47.738Z,42.27
2019-05-23T22:32:18.440Z,38.77
2019-05-23T22:34:58.055Z,38.53
2019-05-23T22:37:30.272Z,38.77
2019-05-23T22:39:58.964Z,35.03
2019-05-23T22:42:29.910Z,34.40
2019-05-23T22:44:58.595Z,33.63
2019-05-23T22:47:27.362Z,33.93
2019-05-23T22:49:55.893Z,32.97
2019-05-23T22:52:24.505Z,31.17
2019-05-23T22:54:53.184Z,32.07
2019-05-23T22:57:21.731Z,31.60
2019-05-23T22:59:50.324Z,31.03
2019-05-23T23:02:20.091Z,30.00
2019-05-23T23:04:48.916Z,26.80
2019-05-23T23:07:17.959Z,27.33
2019-05-23T23:09:46.846Z,26.83
2019-05-23T23:12:15.748Z,24.67
2019-05-23T23:14:44.353Z,28.70
2019-05-23T23:17:13.052Z,28.37
2019-05-23T23:19:41.749Z,28.77
2019-05-23T23:22:12.634Z,33.37
2019-05-23T23:24:41.197Z,31.27
2019-05-23T23:27:09.786Z,30.27
2019-05-23T23:29:38.393Z,21.17
2019-05-23T23:32:07.308Z,18.20
2019-05-23T23:34:35.975Z,18.30
2019-05-23T23:37:04.508Z,17.47
2019-05-23T23:39:33.207Z,17.80
2019-05-23T23:42:01.800Z,17.80
2019-05-23T23:44:35.560Z,17.47
2019-05-23T23:47:22.867Z,13.67
2019-05-23T23:50:10.928Z,13.77
2019-05-23T23:52:57.427Z,13.47
2019-05-23T23:55:44.507Z,12.50
2019-05-23T23:58:12.590Z,12.90
